sensor_id;sensor_type;location;lat;lon;timestamp;temperature;humidity
5304;DHT22;2674;49.722;10.892;2023-11-19T06:42:31;7.10;99.90
5304;DHT22;2674;49.722;10.892;2023-11-19T06:44:57;7.10;99.90
5304;DHT22;2674;49.722;10.892;2023-11-19T06:47:26;7.20;99.90
5304;DHT22;2674;49.722;10.892;2023-11-19T06:49:53;7.20;99.90
5304;DHT22;2674;49.722;10.892;2023-11-19T06:52:19;7.30;99.90
5304;DHT22;2674;49.722;10.892;2023-11-19T06:54:45;7.30;99.90
5304;DHT22;2674;49.722;10.892;2023-11-19T06:57:14;7.30;99.90
5304;DHT22;2674;49.722;10.892;2023-11-19T06:59:40;7.40;99.90
5304;DHT22;2674;49.722;10.892;2023-11-19T07:02:06;7.40;99.90
5304;DHT22;2674;49.722;10.892;2023-11-19T07:04:32;7.50;99.90
5304;DHT22;2674;49.722;10.892;2023-11-19T07:07:01;7.50;99.90
5304;DHT22;2674;49.722;10.892;2023-11-19T07:09:28;7.60;99.90
5304;DHT22;2674;49.722;10.892;2023-11-19T07:11:54;7.60;99.90
5304;DHT22;2674;49.722;10.892;2023-11-19T07:14:21;7.70;99.90
5304;DHT22;2674;49.722;10.892;2023-11-19T07:16:48;7.80;99.90
5304;DHT22;2674;49.722;10.892;2023-11-19T07:19:16;7.90;99.90
5304;DHT22;2674;49.722;10.892;2023-11-19T07:21:42;8.00;99.90
5304;DHT22;2674;49.722;10.892;2023-11-19T07:24:12;8.10;99.90
5304;DHT22;2674;49.722;10.892;2023-11-19T07:26:43;8.40;99.90
5304;DHT22;2674;49.722;10.892;2023-11-19T07:29:10;8.50;99.90
5304;DHT22;2674;49.722;10.892;2023-11-19T07:31:36;8.70;99.90
5304;DHT22;2674;49.722;10.892;2023-11-19T07:34:02;8.90;99.90
5304;DHT22;2674;49.722;10.892;2023-11-19T07:36:29;9.00;99.90
5304;DHT22;2674;49.722;10.892;2023-11-19T07:38:54;9.00;99.90
5304;DHT22;2674;49.722;10.892;2023-11-19T07:41:23;9.10;99.90
5304;DHT22;2674;49.722;10.892;2023-11-19T07:43:50;9.20;99.90
5304;DHT22;2674;49.722;10.892;2023-11-19T07:46:17;9.30;99.90
5304;DHT22;2674;49.722;10.892;2023-11-19T07:48:46;9.40;99.90
5304;DHT22;2674;49.722;10.892;2023-11-19T07:51:13;9.40;99.90
5304;DHT22;2674;49.722;10.892;2023-11-19T07:53:40;9.50;99.90
5304;DHT22;2674;49.722;10.892;2023-11-19T07:56:07;9.60;99.90
5304;DHT22;2674;49.722;10.892;2023-11-19T07:58:33;9.60;99.90
5304;DHT22;2674;49.722;10.892;2023-11-19T08:00:58;9.70;99.90
5304;DHT22;2674;49.722;10.892;2023-11-19T08:03:24;9.70;99.90
5304;DHT22;2674;49.722;10.892;2023-11-19T08:05:50;9.70;99.90
5304;DHT22;2674;49.722;10.892;2023-11-19T08:08:16;9.70;99.90
5304;DHT22;2674;49.722;10.892;2023-11-19T08:10:43;9.70;99.90
5304;DHT22;2674;49.722;10.892;2023-11-19T08:13:13;9.70;99.90
5304;DHT22;2674;49.722;10.892;2023-11-19T08:15:39;9.70;99.90
5304;DHT22;2674;49.722;10.892;2023-11-19T08:18:06;9.70;99.90
5304;DHT22;2674;49.722;10.892;2023-11-19T08:20:33;9.70;99.90
5304;DHT22;2674;49.722;10.892;2023-11-19T08:22:59;9.70;99.90
5304;DHT22;2674;49.722;10.892;2023-11-19T08:25:25;9.80;99.90
5304;DHT22;2674;49.722;10.892;2023-11-19T08:27:51;9.80;99.90
5304;DHT22;2674;49.722;10.892;2023-11-19T08:30:17;9.80;99.90
5304;DHT22;2674;49.722;10.892;2023-11-19T08:32:42;9.80;99.90
5304;DHT22;2674;49.722;10.892;2023-11-19T08:35:08;9.80;99.90
5304;DHT22;2674;49.722;10.892;2023-11-19T08:37:34;9.90;99.90
5304;DHT22;2674;49.722;10.892;2023-11-19T08:40:02;9.90;99.90
5304;DHT22;2674;49.722;10.892;2023-11-19T08:42:30;9.90;99.90
5304;DHT22;2674;49.722;10.892;2023-11-19T08:44:55;10.00;99.90
5304;DHT22;2674;49.722;10.892;2023-11-19T08:47:21;10.00;99.90
5304;DHT22;2674;49.722;10.892;2023-11-19T08:49:51;10.00;99.90
5304;DHT22;2674;49.722;10.892;2023-11-19T08:52:20;10.00;99.90
5304;DHT22;2674;49.722;10.892;2023-11-19T08:54:46;10.00;99.90
5304;DHT22;2674;49.722;10.892;2023-11-19T08:57:12;10.10;99.90
5304;DHT22;2674;49.722;10.892;2023-11-19T08:59:38;10.10;99.90
5304;DHT22;2674;49.722;10.892;2023-11-19T09:02:05;10.10;99.90
5304;DHT22;2674;49.722;10.892;2023-11-19T09:04:31;10.10;99.90
5304;DHT22;2674;49.722;10.892;2023-11-19T09:07:00;10.10;99.90
5304;DHT22;2674;49.722;10.892;2023-11-19T09:09:26;10.20;99.90
5304;DHT22;2674;49.722;10.892;2023-11-19T09:11:51;10.20;99.90
5304;DHT22;2674;49.722;10.892;2023-11-19T09:14:17;10.20;99.90
5304;DHT22;2674;49.722;10.892;2023-11-19T09:16:51;10.20;99.90
5304;DHT22;2674;49.722;10.892;2023-11-19T09:19:17;10.30;99.90
5304;DHT22;2674;49.722;10.892;2023-11-19T09:21:43;10.30;99.90
5304;DHT22;2674;49.722;10.892;2023-11-19T09:24:09;10.40;99.90
5304;DHT22;2674;49.722;10.892;2023-11-19T09:26:35;10.50;99.90
5304;DHT22;2674;49.722;10.892;2023-11-19T09:29:02;10.60;99.90
5304;DHT22;2674;49.722;10.892;2023-11-19T09:31:27;10.70;99.90
5304;DHT22;2674;49.722;10.892;2023-11-19T09:33:53;10.80;99.90
5304;DHT22;2674;49.722;10.892;2023-11-19T09:36:19;10.80;99.90
5304;DHT22;2674;49.722;10.892;2023-11-19T09:38:45;10.90;99.90
5304;DHT22;2674;49.722;10.892;2023-11-19T09:41:11;11.00;99.90
5304;DHT22;2674;49.722;10.892;2023-11-19T09:43:40;11.10;99.90
5304;DHT22;2674;49.722;10.892;2023-11-19T09:46:09;11.20;99.90
5304;DHT22;2674;49.722;10.892;2023-11-19T09:48:37;11.20;99.90
5304;DHT22;2674;49.722;10.892;2023-11-19T09:51:04;11.30;99.90
5304;DHT22;2674;49.722;10.892;2023-11-19T09:53:31;11.30;99.90
5304;DHT22;2674;49.722;10.892;2023-11-19T09:56:00;11.30;99.90
5304;DHT22;2674;49.722;10.892;2023-11-19T09:58:26;11.40;99.90
5304;DHT22;2674;49.722;10.892;2023-11-19T10:00:52;11.50;99.90
5304;DHT22;2674;49.722;10.892;2023-11-19T10:03:18;11.60;99.90
5304;DHT22;2674;49.722;10.892;2023-11-19T10:05:45;11.70;99.90
5304;DHT22;2674;49.722;10.892;2023-11-19T10:08:10;11.70;99.90
5304;DHT22;2674;49.722;10.892;2023-11-19T10:10:37;11.80;99.90
5304;DHT22;2674;49.722;10.892;2023-11-19T10:13:03;11.80;99.90
5304;DHT22;2674;49.722;10.892;2023-11-19T10:15:37;11.80;99.90
5304;DHT22;2674;49.722;10.892;2023-11-19T10:18:03;11.90;99.90
5304;DHT22;2674;49.722;10.892;2023-11-19T10:20:40;11.90;99.90
5304;DHT22;2674;49.722;10.892;2023-11-19T10:23:07;11.90;99.90
5304;DHT22;2674;49.722;10.892;2023-11-19T10:25:34;12.00;99.90
5304;DHT22;2674;49.722;10.892;2023-11-19T10:28:00;12.00;99.90
5304;DHT22;2674;49.722;10.892;2023-11-19T10:30:30;12.10;99.90
5304;DHT22;2674;49.722;10.892;2023-11-19T10:33:06;12.10;99.90
5304;DHT22;2674;49.722;10.892;2023-11-19T10:35:33;12.20;99.90
5304;DHT22;2674;49.722;10.892;2023-11-19T10:38:20;12.20;99.90
5304;DHT22;2674;49.722;10.892;2023-11-19T10:40:49;12.20;99.90
5304;DHT22;2674;49.722;10.892;2023-11-19T10:43:19;12.30;99.90
5304;DHT22;2674;49.722;10.892;2023-11-19T10:45:47;12.30;99.90
5304;DHT22;2674;49.722;10.892;2023-11-19T10:48:12;12.40;99.90
5304;DHT22;2674;49.722;10.892;2023-11-19T10:50:40;12.40;99.90
5304;DHT22;2674;49.722;10.892;2023-11-19T10:53:07;12.50;99.90
5304;DHT22;2674;49.722;10.892;2023-11-19T10:55:37;12.50;99.90
5304;DHT22;2674;49.722;10.892;2023-11-19T10:58:08;12.60;99.90
5304;DHT22;2674;49.722;10.892;2023-11-19T11:00:50;12.50;99.90
5304;DHT22;2674;49.722;10.892;2023-11-19T11:03:19;12.50;99.90
5304;DHT22;2674;49.722;10.892;2023-11-19T11:05:50;12.50;99.90
5304;DHT22;2674;49.722;10.892;2023-11-19T11:08:17;12.40;99.90
5304;DHT22;2674;49.722;10.892;2023-11-19T11:10:53;12.40;99.90
5304;DHT22;2674;49.722;10.892;2023-11-19T11:13:23;12.40;99.90
5304;DHT22;2674;49.722;10.892;2023-11-19T11:15:58;12.30;99.90
5304;DHT22;2674;49.722;10.892;2023-11-19T11:18:24;12.20;99.90
5304;DHT22;2674;49.722;10.892;2023-11-19T11:20:58;12.20;99.90
5304;DHT22;2674;49.722;10.892;2023-11-19T11:29:02;12.30;99.90
5304;DHT22;2674;49.722;10.892;2023-11-19T11:39:52;12.40;99.90
5304;DHT22;2674;49.722;10.892;2023-11-19T11:45:06;12.60;99.90
5304;DHT22;2674;49.722;10.892;2023-11-19T11:55:51;12.60;99.90
5304;DHT22;2674;49.722;10.892;2023-11-19T11:58:21;12.60;99.90
5304;DHT22;2674;49.722;10.892;2023-11-19T12:00:51;12.60;99.90
5304;DHT22;2674;49.722;10.892;2023-11-19T12:03:21;12.50;99.90
5304;DHT22;2674;49.722;10.892;2023-11-19T12:05:50;12.50;99.90
5304;DHT22;2674;49.722;10.892;2023-11-19T12:08:19;12.60;99.90
5304;DHT22;2674;49.722;10.892;2023-11-19T12:10:53;12.50;99.90
5304;DHT22;2674;49.722;10.892;2023-11-19T12:13:20;12.50;99.90
5304;DHT22;2674;49.722;10.892;2023-11-19T12:20:55;12.40;99.90
5304;DHT22;2674;49.722;10.892;2023-11-19T12:23:25;12.40;99.90
5304;DHT22;2674;49.722;10.892;2023-11-19T12:25:51;12.40;99.90
5304;DHT22;2674;49.722;10.892;2023-11-19T12:28:17;12.40;99.90
5304;DHT22;2674;49.722;10.892;2023-11-19T12:30:43;12.30;99.90
5304;DHT22;2674;49.722;10.892;2023-11-19T12:33:14;12.30;99.90
5304;DHT22;2674;49.722;10.892;2023-11-19T12:35:41;12.30;99.90
5304;DHT22;2674;49.722;10.892;2023-11-19T12:38:17;12.40;99.90
5304;DHT22;2674;49.722;10.892;2023-11-19T12:40:43;12.40;99.90
5304;DHT22;2674;49.722;10.892;2023-11-19T12:43:09;12.40;99.90
5304;DHT22;2674;49.722;10.892;2023-11-19T12:45:38;12.50;99.90
5304;DHT22;2674;49.722;10.892;2023-11-19T12:48:08;12.50;99.90
5304;DHT22;2674;49.722;10.892;2023-11-19T12:50:54;12.60;99.90
5304;DHT22;2674;49.722;10.892;2023-11-19T12:53:21;12.70;99.90
5304;DHT22;2674;49.722;10.892;2023-11-19T12:55:48;12.70;99.90
5304;DHT22;2674;49.722;10.892;2023-11-19T12:58:30;12.70;99.90
5304;DHT22;2674;49.722;10.892;2023-11-19T13:01:01;12.60;99.90
5304;DHT22;2674;49.722;10.892;2023-11-19T13:03:34;12.60;99.90
5304;DHT22;2674;49.722;10.892;2023-11-19T13:08:43;12.70;99.90
5304;DHT22;2674;49.722;10.892;2023-11-19T13:11:14;12.80;99.90
5304;DHT22;2674;49.722;10.892;2023-11-19T13:14:00;12.80;99.90
5304;DHT22;2674;49.722;10.892;2023-11-19T13:16:27;12.80;99.90
5304;DHT22;2674;49.722;10.892;2023-11-19T13:18:53;12.80;99.90
5304;DHT22;2674;49.722;10.892;2023-11-19T13:21:19;12.80;99.90
5304;DHT22;2674;49.722;10.892;2023-11-19T13:23:45;12.80;99.90
5304;DHT22;2674;49.722;10.892;2023-11-19T13:26:14;12.70;99.90
5304;DHT22;2674;49.722;10.892;2023-11-19T13:28:39;12.60;99.90
5304;DHT22;2674;49.722;10.892;2023-11-19T13:31:05;12.50;99.90
5304;DHT22;2674;49.722;10.892;2023-11-19T13:33:31;12.40;99.90
5304;DHT22;2674;49.722;10.892;2023-11-19T13:35:57;12.30;99.90
5304;DHT22;2674;49.722;10.892;2023-11-19T13:38:23;12.30;99.90
5304;DHT22;2674;49.722;10.892;2023-11-19T13:40:52;12.30;99.90
5304;DHT22;2674;49.722;10.892;2023-11-19T13:43:18;12.20;99.90
5304;DHT22;2674;49.722;10.892;2023-11-19T13:45:44;12.10;99.90
5304;DHT22;2674;49.722;10.892;2023-11-19T13:48:09;12.10;99.90
5304;DHT22;2674;49.722;10.892;2023-11-19T13:50:35;12.10;99.90
5304;DHT22;2674;49.722;10.892;2023-11-19T13:53:01;12.00;99.90
5304;DHT22;2674;49.722;10.892;2023-11-19T13:55:27;12.00;99.90
5304;DHT22;2674;49.722;10.892;2023-11-19T13:57:53;11.90;99.90
5304;DHT22;2674;49.722;10.892;2023-11-19T14:00:18;11.90;99.90
5304;DHT22;2674;49.722;10.892;2023-11-19T14:02:46;11.90;99.90
5304;DHT22;2674;49.722;10.892;2023-11-19T14:05:13;12.00;99.90
5304;DHT22;2674;49.722;10.892;2023-11-19T14:07:41;11.90;99.90
5304;DHT22;2674;49.722;10.892;2023-11-19T14:10:07;11.90;99.90
5304;DHT22;2674;49.722;10.892;2023-11-19T14:12:42;12.00;99.90
5304;DHT22;2674;49.722;10.892;2023-11-19T14:15:09;12.00;99.90
5304;DHT22;2674;49.722;10.892;2023-11-19T14:17:37;12.00;99.90
5304;DHT22;2674;49.722;10.892;2023-11-19T14:20:04;12.10;99.90
5304;DHT22;2674;49.722;10.892;2023-11-19T14:22:45;12.10;99.90
5304;DHT22;2674;49.722;10.892;2023-11-19T14:25:14;12.10;99.90
5304;DHT22;2674;49.722;10.892;2023-11-19T14:27:41;12.10;99.90
5304;DHT22;2674;49.722;10.892;2023-11-19T14:30:09;12.10;99.90
5304;DHT22;2674;49.722;10.892;2023-11-19T14:32:39;12.00;99.90
5304;DHT22;2674;49.722;10.892;2023-11-19T14:35:06;12.00;99.90
5304;DHT22;2674;49.722;10.892;2023-11-19T14:37:33;12.00;99.90
5304;DHT22;2674;49.722;10.892;2023-11-19T14:39:59;11.90;99.90
5304;DHT22;2674;49.722;10.892;2023-11-19T14:42:25;11.90;99.90
5304;DHT22;2674;49.722;10.892;2023-11-19T14:44:54;11.90;99.90
5304;DHT22;2674;49.722;10.892;2023-11-19T14:47:21;11.80;99.90
5304;DHT22;2674;49.722;10.892;2023-11-19T14:49:47;11.70;99.90
5304;DHT22;2674;49.722;10.892;2023-11-19T14:52:13;11.60;99.90
5304;DHT22;2674;49.722;10.892;2023-11-19T14:54:39;11.60;99.90
5304;DHT22;2674;49.722;10.892;2023-11-19T14:57:06;11.50;99.90
5304;DHT22;2674;49.722;10.892;2023-11-19T14:59:34;11.40;99.90
5304;DHT22;2674;49.722;10.892;2023-11-19T15:02:00;11.40;99.90
5304;DHT22;2674;49.722;10.892;2023-11-19T15:04:29;11.20;99.90
5304;DHT22;2674;49.722;10.892;2023-11-19T15:06:58;11.30;99.90
5304;DHT22;2674;49.722;10.892;2023-11-19T15:09:24;11.30;99.90
5304;DHT22;2674;49.722;10.892;2023-11-19T15:11:53;11.30;99.90
5304;DHT22;2674;49.722;10.892;2023-11-19T15:14:19;11.20;99.90
5304;DHT22;2674;49.722;10.892;2023-11-19T15:16:46;11.20;99.90
5304;DHT22;2674;49.722;10.892;2023-11-19T15:19:15;11.20;99.90
5304;DHT22;2674;49.722;10.892;2023-11-19T15:21:41;11.20;99.90
5304;DHT22;2674;49.722;10.892;2023-11-19T15:24:08;11.20;99.90
5304;DHT22;2674;49.722;10.892;2023-11-19T15:26:34;11.10;99.90
5304;DHT22;2674;49.722;10.892;2023-11-19T15:29:04;11.10;99.90
5304;DHT22;2674;49.722;10.892;2023-11-19T15:31:30;11.10;99.90
5304;DHT22;2674;49.722;10.892;2023-11-19T15:33:56;11.00;99.90
5304;DHT22;2674;49.722;10.892;2023-11-19T15:36:22;10.90;99.90
5304;DHT22;2674;49.722;10.892;2023-11-19T15:38:47;10.80;99.90
5304;DHT22;2674;49.722;10.892;2023-11-19T15:41:14;10.80;99.90
5304;DHT22;2674;49.722;10.892;2023-11-19T15:43:39;10.70;99.90
5304;DHT22;2674;49.722;10.892;2023-11-19T15:46:09;10.60;99.90
5304;DHT22;2674;49.722;10.892;2023-11-19T15:48:36;10.60;99.90
5304;DHT22;2674;49.722;10.892;2023-11-19T15:51:03;10.60;99.90
5304;DHT22;2674;49.722;10.892;2023-11-19T15:53:29;10.50;99.90
5304;DHT22;2674;49.722;10.892;2023-11-19T15:55:57;10.60;99.90
5304;DHT22;2674;49.722;10.892;2023-11-19T15:58:23;10.60;99.90
5304;DHT22;2674;49.722;10.892;2023-11-19T16:00:48;10.50;99.90
5304;DHT22;2674;49.722;10.892;2023-11-19T16:03:14;10.50;99.90
5304;DHT22;2674;49.722;10.892;2023-11-19T16:05:41;10.40;99.90
5304;DHT22;2674;49.722;10.892;2023-11-19T16:08:10;10.40;99.90
5304;DHT22;2674;49.722;10.892;2023-11-19T16:10:37;10.50;99.90
5304;DHT22;2674;49.722;10.892;2023-11-19T16:13:08;10.50;99.90
5304;DHT22;2674;49.722;10.892;2023-11-19T16:15:35;10.50;99.90
5304;DHT22;2674;49.722;10.892;2023-11-19T16:18:01;10.50;99.90
5304;DHT22;2674;49.722;10.892;2023-11-19T16:20:27;10.50;99.90
5304;DHT22;2674;49.722;10.892;2023-11-19T16:22:53;10.40;99.90
5304;DHT22;2674;49.722;10.892;2023-11-19T16:25:19;10.40;99.90
5304;DHT22;2674;49.722;10.892;2023-11-19T16:27:45;10.40;99.90
5304;DHT22;2674;49.722;10.892;2023-11-19T16:30:11;10.40;99.90
5304;DHT22;2674;49.722;10.892;2023-11-19T16:32:49;10.40;99.90
5304;DHT22;2674;49.722;10.892;2023-11-19T16:35:16;10.30;99.90
5304;DHT22;2674;49.722;10.892;2023-11-19T16:37:45;10.30;99.90
5304;DHT22;2674;49.722;10.892;2023-11-19T16:40:11;10.20;99.90
5304;DHT22;2674;49.722;10.892;2023-11-19T16:42:38;10.10;99.90
5304;DHT22;2674;49.722;10.892;2023-11-19T16:45:05;10.10;99.90
5304;DHT22;2674;49.722;10.892;2023-11-19T16:47:31;10.00;99.90
5304;DHT22;2674;49.722;10.892;2023-11-19T16:49:57;10.00;99.90
5304;DHT22;2674;49.722;10.892;2023-11-19T16:52:23;10.00;99.90
5304;DHT22;2674;49.722;10.892;2023-11-19T16:54:50;9.90;99.90
5304;DHT22;2674;49.722;10.892;2023-11-19T16:57:16;10.00;99.90
5304;DHT22;2674;49.722;10.892;2023-11-19T16:59:43;9.80;99.90
5304;DHT22;2674;49.722;10.892;2023-11-19T17:02:09;9.80;99.90
5304;DHT22;2674;49.722;10.892;2023-11-19T17:04:37;9.70;99.90
5304;DHT22;2674;49.722;10.892;2023-11-19T17:07:02;9.70;99.90
5304;DHT22;2674;49.722;10.892;2023-11-19T17:09:28;9.70;99.90
5304;DHT22;2674;49.722;10.892;2023-11-19T17:11:54;9.60;99.90
5304;DHT22;2674;49.722;10.892;2023-11-19T17:14:21;9.60;99.90
5304;DHT22;2674;49.722;10.892;2023-11-19T17:16:46;9.60;99.90
5304;DHT22;2674;49.722;10.892;2023-11-19T17:19:12;9.50;99.90
5304;DHT22;2674;49.722;10.892;2023-11-19T17:21:38;9.50;99.90
5304;DHT22;2674;49.722;10.892;2023-11-19T17:24:04;9.50;99.90
5304;DHT22;2674;49.722;10.892;2023-11-19T17:26:30;9.40;99.90
5304;DHT22;2674;49.722;10.892;2023-11-19T17:28:56;9.30;99.90
5304;DHT22;2674;49.722;10.892;2023-11-19T17:31:22;9.30;99.90
5304;DHT22;2674;49.722;10.892;2023-11-19T17:33:47;9.20;99.90
5304;DHT22;2674;49.722;10.892;2023-11-19T17:36:13;9.20;99.90
5304;DHT22;2674;49.722;10.892;2023-11-19T17:38:39;9.10;99.90
5304;DHT22;2674;49.722;10.892;2023-11-19T17:41:05;9.10;99.90
5304;DHT22;2674;49.722;10.892;2023-11-19T17:43:31;9.10;99.90
5304;DHT22;2674;49.722;10.892;2023-11-19T17:45:57;9.10;99.90
5304;DHT22;2674;49.722;10.892;2023-11-19T17:48:25;9.10;99.90
5304;DHT22;2674;49.722;10.892;2023-11-19T17:50:51;9.00;99.90
5304;DHT22;2674;49.722;10.892;2023-11-19T17:53:21;9.00;99.90
5304;DHT22;2674;49.722;10.892;2023-11-19T17:55:47;9.00;99.90
5304;DHT22;2674;49.722;10.892;2023-11-19T17:58:12;9.00;99.90
5304;DHT22;2674;49.722;10.892;2023-11-19T18:00:38;9.00;99.90
5304;DHT22;2674;49.722;10.892;2023-11-19T18:03:04;9.00;99.90
5304;DHT22;2674;49.722;10.892;2023-11-19T18:05:30;9.20;99.90
5304;DHT22;2674;49.722;10.892;2023-11-19T18:07:56;9.00;99.90
5304;DHT22;2674;49.722;10.892;2023-11-19T18:10:22;9.00;99.90
5304;DHT22;2674;49.722;10.892;2023-11-19T18:12:48;8.90;99.90
5304;DHT22;2674;49.722;10.892;2023-11-19T18:15:13;8.90;99.90
5304;DHT22;2674;49.722;10.892;2023-11-19T18:17:41;8.90;99.90
5304;DHT22;2674;49.722;10.892;2023-11-19T18:20:10;8.90;99.90
5304;DHT22;2674;49.722;10.892;2023-11-19T18:22:43;8.90;99.90
5304;DHT22;2674;49.722;10.892;2023-11-19T18:25:10;8.90;99.90
5304;DHT22;2674;49.722;10.892;2023-11-19T18:27:39;8.90;99.90
5304;DHT22;2674;49.722;10.892;2023-11-19T18:30:09;8.90;99.90
5304;DHT22;2674;49.722;10.892;2023-11-19T18:32:38;9.00;99.90
5304;DHT22;2674;49.722;10.892;2023-11-19T18:35:07;9.00;99.90
5304;DHT22;2674;49.722;10.892;2023-11-19T18:37:40;9.00;99.90
5304;DHT22;2674;49.722;10.892;2023-11-19T18:40:07;9.00;99.90
5304;DHT22;2674;49.722;10.892;2023-11-19T18:42:37;9.10;99.90
5304;DHT22;2674;49.722;10.892;2023-11-19T18:45:03;9.10;99.90
5304;DHT22;2674;49.722;10.892;2023-11-19T18:47:30;9.20;99.90
5304;DHT22;2674;49.722;10.892;2023-11-19T18:49:56;9.30;99.90
5304;DHT22;2674;49.722;10.892;2023-11-19T18:52:22;9.40;99.90
5304;DHT22;2674;49.722;10.892;2023-11-19T18:54:48;9.40;99.90
5304;DHT22;2674;49.722;10.892;2023-11-19T18:57:13;9.50;99.90
5304;DHT22;2674;49.722;10.892;2023-11-19T18:59:39;9.60;99.90
5304;DHT22;2674;49.722;10.892;2023-11-19T19:02:06;9.70;99.90
5304;DHT22;2674;49.722;10.892;2023-11-19T19:04:32;9.80;99.90
5304;DHT22;2674;49.722;10.892;2023-11-19T19:06:58;9.80;99.90
5304;DHT22;2674;49.722;10.892;2023-11-19T19:09:26;9.90;99.90
5304;DHT22;2674;49.722;10.892;2023-11-19T19:11:52;9.90;99.90
5304;DHT22;2674;49.722;10.892;2023-11-19T19:14:18;10.00;99.90
5304;DHT22;2674;49.722;10.892;2023-11-19T19:16:44;9.90;99.90
5304;DHT22;2674;49.722;10.892;2023-11-19T19:19:09;9.90;99.90
5304;DHT22;2674;49.722;10.892;2023-11-19T19:21:35;9.90;99.90
5304;DHT22;2674;49.722;10.892;2023-11-19T19:24:02;9.80;99.90
5304;DHT22;2674;49.722;10.892;2023-11-19T19:26:29;9.70;99.90
5304;DHT22;2674;49.722;10.892;2023-11-19T19:28:58;9.60;99.90
5304;DHT22;2674;49.722;10.892;2023-11-19T19:31:24;9.50;99.90
5304;DHT22;2674;49.722;10.892;2023-11-19T19:33:51;9.40;99.90
5304;DHT22;2674;49.722;10.892;2023-11-19T19:36:27;9.30;99.90
5304;DHT22;2674;49.722;10.892;2023-11-19T19:38:58;9.20;99.90
5304;DHT22;2674;49.722;10.892;2023-11-19T19:41:23;9.10;99.90
5304;DHT22;2674;49.722;10.892;2023-11-19T19:43:52;9.00;99.90
5304;DHT22;2674;49.722;10.892;2023-11-19T19:46:17;8.90;99.90
5304;DHT22;2674;49.722;10.892;2023-11-19T19:48:43;8.90;99.90
5304;DHT22;2674;49.722;10.892;2023-11-19T19:51:12;8.90;99.90
5304;DHT22;2674;49.722;10.892;2023-11-19T19:53:38;8.80;99.90
5304;DHT22;2674;49.722;10.892;2023-11-19T19:56:07;8.80;99.90
5304;DHT22;2674;49.722;10.892;2023-11-19T19:58:34;8.80;99.90
5304;DHT22;2674;49.722;10.892;2023-11-19T20:01:00;8.80;99.90
5304;DHT22;2674;49.722;10.892;2023-11-19T20:03:28;8.70;99.90
5304;DHT22;2674;49.722;10.892;2023-11-19T20:05:58;8.70;99.90
5304;DHT22;2674;49.722;10.892;2023-11-19T20:08:24;8.60;99.90
5304;DHT22;2674;49.722;10.892;2023-11-19T20:10:51;8.60;99.90
5304;DHT22;2674;49.722;10.892;2023-11-19T20:13:16;8.60;99.90
5304;DHT22;2674;49.722;10.892;2023-11-19T20:15:43;8.60;99.90
5304;DHT22;2674;49.722;10.892;2023-11-19T20:18:09;8.60;99.90
5304;DHT22;2674;49.722;10.892;2023-11-19T20:20:41;8.50;99.90
5304;DHT22;2674;49.722;10.892;2023-11-19T20:23:07;8.50;99.90
5304;DHT22;2674;49.722;10.892;2023-11-19T20:25:34;8.50;99.90
5304;DHT22;2674;49.722;10.892;2023-11-19T20:28:00;8.40;99.90
5304;DHT22;2674;49.722;10.892;2023-11-19T20:30:26;8.40;99.90
5304;DHT22;2674;49.722;10.892;2023-11-19T20:32:52;8.30;99.90
5304;DHT22;2674;49.722;10.892;2023-11-19T20:35:17;8.20;99.90
5304;DHT22;2674;49.722;10.892;2023-11-19T20:37:44;8.10;99.90
5304;DHT22;2674;49.722;10.892;2023-11-19T20:40:10;8.10;99.90
5304;DHT22;2674;49.722;10.892;2023-11-19T20:42:38;8.00;99.90
5304;DHT22;2674;49.722;10.892;2023-11-19T20:45:08;7.90;99.90
5304;DHT22;2674;49.722;10.892;2023-11-19T20:47:40;7.80;99.90
5304;DHT22;2674;49.722;10.892;2023-11-19T20:50:07;7.80;99.90
5304;DHT22;2674;49.722;10.892;2023-11-19T20:52:37;7.80;99.90
5304;DHT22;2674;49.722;10.892;2023-11-19T20:55:06;7.90;99.90
5304;DHT22;2674;49.722;10.892;2023-11-19T20:57:33;7.90;99.90
5304;DHT22;2674;49.722;10.892;2023-11-19T20:59:58;8.00;99.90
5304;DHT22;2674;49.722;10.892;2023-11-19T21:02:24;8.00;99.90
5304;DHT22;2674;49.722;10.892;2023-11-19T21:04:50;8.10;99.90
5304;DHT22;2674;49.722;10.892;2023-11-19T21:07:16;8.10;99.90
5304;DHT22;2674;49.722;10.892;2023-11-19T21:09:42;8.20;99.90
5304;DHT22;2674;49.722;10.892;2023-11-19T21:12:08;8.20;99.90
5304;DHT22;2674;49.722;10.892;2023-11-19T21:14:34;8.20;99.90
5304;DHT22;2674;49.722;10.892;2023-11-19T21:17:03;8.20;99.90
5304;DHT22;2674;49.722;10.892;2023-11-19T21:19:29;8.10;99.90
5304;DHT22;2674;49.722;10.892;2023-11-19T21:21:55;8.10;99.90
5304;DHT22;2674;49.722;10.892;2023-11-19T21:24:21;8.10;99.90
5304;DHT22;2674;49.722;10.892;2023-11-19T21:26:47;8.10;99.90
5304;DHT22;2674;49.722;10.892;2023-11-19T21:29:13;8.00;99.90
5304;DHT22;2674;49.722;10.892;2023-11-19T21:31:39;8.10;99.90
5304;DHT22;2674;49.722;10.892;2023-11-19T21:34:05;8.10;99.90
5304;DHT22;2674;49.722;10.892;2023-11-19T21:36:31;8.10;99.90
5304;DHT22;2674;49.722;10.892;2023-11-19T21:38:57;8.10;99.90
5304;DHT22;2674;49.722;10.892;2023-11-19T21:41:23;8.10;99.90
5304;DHT22;2674;49.722;10.892;2023-11-19T21:43:49;8.10;99.90
5304;DHT22;2674;49.722;10.892;2023-11-19T21:46:15;8.10;99.90
5304;DHT22;2674;49.722;10.892;2023-11-19T21:48:41;8.20;99.90
5304;DHT22;2674;49.722;10.892;2023-11-19T21:51:07;8.20;99.90
5304;DHT22;2674;49.722;10.892;2023-11-19T21:53:34;8.20;99.90
5304;DHT22;2674;49.722;10.892;2023-11-19T21:55:59;8.20;99.90
5304;DHT22;2674;49.722;10.892;2023-11-19T21:58:26;8.20;99.90
5304;DHT22;2674;49.722;10.892;2023-11-19T22:00:52;8.20;99.90
5304;DHT22;2674;49.722;10.892;2023-11-19T22:03:18;8.20;99.90
5304;DHT22;2674;49.722;10.892;2023-11-19T22:05:44;8.20;99.90
5304;DHT22;2674;49.722;10.892;2023-11-19T22:08:10;8.20;99.90
5304;DHT22;2674;49.722;10.892;2023-11-19T22:10:36;8.20;99.90
5304;DHT22;2674;49.722;10.892;2023-11-19T22:13:02;8.20;99.90
5304;DHT22;2674;49.722;10.892;2023-11-19T22:15:29;8.20;99.90
5304;DHT22;2674;49.722;10.892;2023-11-19T22:17:55;8.30;99.90
5304;DHT22;2674;49.722;10.892;2023-11-19T22:20:20;8.30;99.90
5304;DHT22;2674;49.722;10.892;2023-11-19T22:22:49;8.30;99.90
5304;DHT22;2674;49.722;10.892;2023-11-19T22:25:16;8.30;99.90
5304;DHT22;2674;49.722;10.892;2023-11-19T22:27:43;8.30;99.90
5304;DHT22;2674;49.722;10.892;2023-11-19T22:30:09;8.30;99.90
5304;DHT22;2674;49.722;10.892;2023-11-19T22:32:35;8.40;99.90
5304;DHT22;2674;49.722;10.892;2023-11-19T22:35:00;8.40;99.90
5304;DHT22;2674;49.722;10.892;2023-11-19T22:37:26;8.40;99.90
5304;DHT22;2674;49.722;10.892;2023-11-19T22:39:52;8.40;99.90
5304;DHT22;2674;49.722;10.892;2023-11-19T22:42:19;8.40;99.90
5304;DHT22;2674;49.722;10.892;2023-11-19T22:44:45;8.40;99.90
5304;DHT22;2674;49.722;10.892;2023-11-19T22:47:11;8.40;99.90
5304;DHT22;2674;49.722;10.892;2023-11-19T22:49:37;8.40;99.90
5304;DHT22;2674;49.722;10.892;2023-11-19T22:52:02;8.50;99.90
5304;DHT22;2674;49.722;10.892;2023-11-19T22:54:29;8.50;99.90
5304;DHT22;2674;49.722;10.892;2023-11-19T22:56:58;8.50;99.90
5304;DHT22;2674;49.722;10.892;2023-11-19T22:59:24;8.50;99.90
5304;DHT22;2674;49.722;10.892;2023-11-19T23:01:50;8.50;99.90
5304;DHT22;2674;49.722;10.892;2023-11-19T23:04:16;8.50;99.90
5304;DHT22;2674;49.722;10.892;2023-11-19T23:06:42;8.50;99.90
5304;DHT22;2674;49.722;10.892;2023-11-19T23:09:09;8.50;99.90